Terminal Aerodrome Forecast
Issued by NWS

Home | Current Version | Previous Version | Text Only | Print | Product List | Glossary On
Versions: 1 2 3 4 5 6 7 8 9 10 11 12 13 14
000
FTUS44 KCRP 271120
TAFALI
TAF
KALI 271120Z 2712/2812 VRB06KT P6SM VCSH SCT015 BKN110
      TEMPO 2712/2716 -SHRA BKN015
     FM271600 07011KT P6SM VCSH SCT025 BKN040
      TEMPO 2719/2723 TSRA BKN025CB
     FM280000 VRB04KT P6SM SCT025 BKN050
      TEMPO 2809/2812 BKN015=

USA.gov is the U.S. government's official web portal to all federal, state and local government web resources and services.